Time;durP1;ratioP1;P1;durP2;ratioP2;P2;SDS_P1;SDS_P2;PMS_P1;PMS_P2;Temp;Humidity;BMP_temperature;BMP_pressure;BME280_temperature;BME280_humidity;BME280_pressure;Samples;Min_cycle;Max_cycle;Signal;HPM_P1;HPM_P2
2022/03/02 00:01:34;;;;;;;1.42;1.30;;;20.40;53.00;;;;;;5009561;28;20282;-47
2022/03/02 00:04:04;;;;;;;2.70;1.60;;;20.40;53.00;;;;;;5009391;28;20597;-48
2022/03/02 00:06:35;;;;;;;2.65;1.30;;;20.40;53.00;;;;;;5009238;28;20200;-49
2022/03/02 00:09:06;;;;;;;2.63;1.42;;;20.40;53.10;;;;;;5009423;28;20283;-49
2022/03/02 00:11:39;;;;;;;1.92;1.38;;;20.50;53.10;;;;;;5009261;28;20282;-48
2022/03/02 00:14:10;;;;;;;1.85;1.20;;;20.50;53.20;;;;;;5007446;28;20696;-47
2022/03/02 00:16:40;;;;;;;2.22;1.38;;;20.50;53.20;;;;;;5009712;28;20212;-48
2022/03/02 00:19:11;;;;;;;1.83;1.20;;;20.50;53.20;;;;;;5008898;28;20716;-49
2022/03/02 00:21:41;;;;;;;1.33;1.05;;;20.50;53.20;;;;;;5007356;28;20231;-48
2022/03/02 00:24:12;;;;;;;2.53;1.60;;;20.50;53.20;;;;;;5008010;28;20778;-49
2022/03/02 00:26:45;;;;;;;2.58;1.58;;;20.60;53.30;;;;;;5020753;22;20229;-53
2022/03/02 00:29:15;;;;;;;2.22;1.40;;;20.60;53.30;;;;;;5026041;28;20690;-52
2022/03/02 00:31:46;;;;;;;1.85;1.13;;;20.60;53.30;;;;;;5014763;28;20231;-56
2022/03/02 00:34:17;;;;;;;1.70;1.10;;;20.60;53.30;;;;;;5038015;28;20291;-50
2022/03/02 00:36:48;;;;;;;1.45;1.35;;;20.60;53.30;;;;;;5009148;28;20197;-53
2022/03/02 00:39:19;;;;;;;2.45;1.10;;;20.70;53.30;;;;;;5009432;28;20247;-54
2022/03/02 00:41:51;;;;;;;1.52;1.15;;;20.70;53.30;;;;;;5008478;28;20273;-54
2022/03/02 00:44:22;;;;;;;1.80;1.33;;;20.70;53.30;;;;;;5008138;28;20343;-53
2022/03/02 00:46:53;;;;;;;1.85;1.42;;;20.70;53.30;;;;;;5008464;28;20201;-54
2022/03/02 00:49:26;;;;;;;1.70;1.33;;;20.80;53.30;;;;;;5009307;28;20238;-53
2022/03/02 00:51:58;;;;;;;3.92;1.40;;;20.80;53.30;;;;;;5007544;28;20594;-53
2022/03/02 00:54:28;;;;;;;1.92;1.25;;;20.80;53.30;;;;;;5008084;28;20216;-54
2022/03/02 00:57:01;;;;;;;1.33;1.23;;;20.80;53.30;;;;;;5007984;28;20251;-51
2022/03/02 00:59:31;;;;;;;1.73;1.00;;;20.80;53.30;;;;;;5008864;28;20967;-56
2022/03/02 01:02:02;;;;;;;1.83;1.30;;;20.90;53.30;;;;;;5009152;28;20227;-56
2022/03/02 01:04:33;;;;;;;2.60;1.20;;;20.90;53.30;;;;;;5008588;28;20220;-54
2022/03/02 01:07:03;;;;;;;2.72;1.20;;;20.90;53.30;;;;;;5008330;28;20255;-55
2022/03/02 01:09:34;;;;;;;1.42;1.33;;;20.90;53.30;;;;;;5008094;28;20200;-54
2022/03/02 01:12:06;;;;;;;1.58;1.20;;;21.00;53.40;;;;;;5008329;28;20239;-55
2022/03/02 01:14:37;;;;;;;2.85;1.45;;;21.00;53.40;;;;;;5008159;28;20200;-55
2022/03/02 01:17:08;;;;;;;2.13;1.20;;;21.00;53.30;;;;;;5008326;28;20197;-53
2022/03/02 01:19:39;;;;;;;1.88;1.30;;;21.00;53.30;;;;;;5007979;28;20197;-54
2022/03/02 01:22:09;;;;;;;1.65;1.10;;;21.10;53.30;;;;;;5007399;28;20279;-51
2022/03/02 01:27:14;;;;;;;1.92;1.20;;;21.10;53.30;;;;;;5063245;28;20218;-47
2022/03/02 01:29:45;;;;;;;1.02;0.95;;;21.10;53.20;;;;;;5066749;28;20650;-48
2022/03/02 01:32:16;;;;;;;1.75;1.20;;;21.20;53.30;;;;;;5055919;28;20265;-48
2022/03/02 01:34:47;;;;;;;1.90;1.08;;;21.20;53.20;;;;;;5036991;28;20560;-51
2022/03/02 01:37:18;;;;;;;1.88;1.30;;;21.20;53.20;;;;;;5026992;28;20191;-47
2022/03/02 01:39:49;;;;;;;1.30;1.10;;;21.20;53.10;;;;;;5026949;28;20227;-47
2022/03/02 01:42:21;;;;;;;2.30;1.30;;;21.20;53.10;;;;;;5028213;28;20215;-48
2022/03/02 01:44:52;;;;;;;1.40;1.10;;;21.20;53.00;;;;;;5029011;28;20250;-50
2022/03/02 01:47:22;;;;;;;1.40;1.17;;;21.30;53.00;;;;;;5031946;28;20192;-48
2022/03/02 01:49:53;;;;;;;1.08;0.98;;;21.30;53.00;;;;;;5031923;28;20192;-51
2022/03/02 01:52:24;;;;;;;1.55;1.08;;;21.30;53.00;;;;;;5030716;28;20208;-52
2022/03/02 01:54:54;;;;;;;1.88;1.20;;;21.30;52.90;;;;;;5031499;28;20687;-48
2022/03/02 01:57:27;;;;;;;0.90;0.80;;;21.30;52.90;;;;;;5031922;28;20249;-49
2022/03/02 02:00:01;;;;;;;1.20;0.90;;;21.30;52.90;;;;;;5031974;28;20219;-50
2022/03/02 02:02:31;;;;;;;1.52;1.10;;;21.40;53.00;;;;;;5031409;28;20216;-49
2022/03/02 02:05:02;;;;;;;3.13;1.40;;;21.40;53.00;;;;;;5031283;28;20297;-51
2022/03/02 02:07:32;;;;;;;1.70;1.10;;;21.40;53.00;;;;;;5030800;28;20201;-46
2022/03/02 02:10:03;;;;;;;2.28;1.10;;;21.40;53.00;;;;;;5030042;28;20621;-49
2022/03/02 02:12:36;;;;;;;3.47;1.33;;;21.40;53.10;;;;;;5030126;28;20306;-48
2022/03/02 02:15:09;;;;;;;1.80;1.23;;;21.50;53.10;;;;;;5031245;28;20678;-49
2022/03/02 02:17:40;;;;;;;1.73;1.10;;;21.50;53.10;;;;;;5030632;28;20200;-48
2022/03/02 02:20:12;;;;;;;1.15;1.02;;;21.50;53.10;;;;;;5031221;28;20230;-49
2022/03/02 02:22:47;;;;;;;1.40;1.00;;;21.50;53.00;;;;;;5030500;28;20243;-48
2022/03/02 02:25:18;;;;;;;1.75;1.00;;;21.60;53.00;;;;;;5032078;28;20211;-48
2022/03/02 02:27:50;;;;;;;1.20;1.08;;;21.60;53.00;;;;;;5030902;28;20656;-47
2022/03/02 02:30:21;;;;;;;2.35;1.20;;;21.60;52.90;;;;;;5031632;28;20251;-48
2022/03/02 02:32:52;;;;;;;2.17;1.13;;;21.60;52.90;;;;;;5030515;28;20270;-47
2022/03/02 02:35:22;;;;;;;2.15;1.15;;;21.60;52.80;;;;;;5031169;28;20242;-50
2022/03/02 02:37:55;;;;;;;1.65;1.25;;;21.60;52.80;;;;;;5030951;28;20627;-47
2022/03/02 02:40:28;;;;;;;2.17;1.33;;;21.70;52.80;;;;;;5028135;28;20195;-50
2022/03/02 02:42:58;;;;;;;2.33;1.20;;;21.70;52.80;;;;;;5030714;28;20271;-49
2022/03/02 02:45:29;;;;;;;2.05;1.30;;;21.70;52.70;;;;;;5029884;28;20200;-49
2022/03/02 02:48:00;;;;;;;2.03;1.30;;;21.70;52.70;;;;;;5030867;28;20262;-49
2022/03/02 02:50:32;;;;;;;2.00;0.98;;;21.70;52.70;;;;;;5030180;28;20251;-51
2022/03/02 02:53:07;;;;;;;1.88;0.90;;;21.70;52.70;;;;;;5026875;28;20216;-48
2022/03/02 02:55:38;;;;;;;1.75;1.13;;;21.70;52.80;;;;;;5030161;28;20648;-47
2022/03/02 02:58:09;;;;;;;1.52;1.20;;;21.70;52.70;;;;;;5030890;28;20203;-48
2022/03/02 03:00:42;;;;;;;2.47;1.10;;;21.70;52.70;;;;;;5030007;28;20218;-50
2022/03/02 03:03:12;;;;;;;2.20;1.10;;;21.80;52.70;;;;;;5029490;28;20730;-49
2022/03/02 03:05:44;;;;;;;1.73;1.10;;;21.80;52.70;;;;;;5029380;28;20192;-47
2022/03/02 03:08:17;;;;;;;1.85;1.05;;;21.80;52.70;;;;;;5030316;28;20291;-47
2022/03/02 03:10:50;;;;;;;2.05;1.00;;;21.80;52.60;;;;;;5030814;28;20406;-47
2022/03/02 03:13:21;;;;;;;2.33;1.00;;;21.80;52.60;;;;;;5029853;28;20262;-48
2022/03/02 03:15:52;;;;;;;1.63;1.02;;;21.90;52.60;;;;;;5030923;28;20204;-48
2022/03/02 03:18:24;;;;;;;1.83;1.20;;;21.90;52.60;;;;;;5030384;28;20193;-47
2022/03/02 03:20:55;;;;;;;1.42;1.08;;;21.90;52.50;;;;;;5031242;28;20283;-50
2022/03/02 03:23:28;;;;;;;1.70;1.10;;;21.90;52.50;;;;;;5029286;28;20877;-49
2022/03/02 03:25:59;;;;;;;1.45;1.10;;;21.90;52.50;;;;;;5031097;28;20204;-48
2022/03/02 03:28:29;;;;;;;1.50;0.95;;;22.00;52.40;;;;;;5030027;28;20196;-48
2022/03/02 03:31:02;;;;;;;1.70;1.00;;;22.00;52.30;;;;;;5028531;28;20200;-49
2022/03/02 03:33:33;;;;;;;1.52;1.02;;;22.00;52.40;;;;;;5029406;28;20274;-48
2022/03/02 03:36:04;;;;;;;2.25;1.10;;;22.00;52.30;;;;;;5030059;28;20204;-49
2022/03/02 03:38:37;;;;;;;1.38;0.90;;;22.00;52.30;;;;;;5027723;28;20192;-48
2022/03/02 03:41:07;;;;;;;2.33;1.15;;;22.10;52.30;;;;;;5028110;28;20663;-48
2022/03/02 03:43:38;;;;;;;1.33;0.98;;;22.10;52.30;;;;;;5027956;28;20228;-49
2022/03/02 03:46:09;;;;;;;1.77;0.85;;;22.10;52.20;;;;;;5029953;28;20258;-49
2022/03/02 03:48:39;;;;;;;1.52;1.02;;;22.10;52.10;;;;;;5030180;28;20652;-48
2022/03/02 03:51:10;;;;;;;1.92;1.02;;;22.10;52.10;;;;;;5028906;28;20278;-49
2022/03/02 03:53:42;;;;;;;1.33;1.20;;;22.10;52.10;;;;;;5029658;28;20204;-49
2022/03/02 03:56:13;;;;;;;1.15;0.90;;;22.10;52.10;;;;;;5030114;28;20196;-48
2022/03/02 03:58:43;;;;;;;1.65;1.00;;;22.20;52.10;;;;;;5029487;28;20605;-48
2022/03/02 04:01:14;;;;;;;1.63;1.10;;;22.20;52.10;;;;;;5029972;28;20196;-47
2022/03/02 04:03:46;;;;;;;2.30;1.08;;;22.20;52.00;;;;;;5029128;28;20731;-49
2022/03/02 04:06:16;;;;;;;3.03;1.30;;;22.20;52.00;;;;;;5028503;28;20196;-50
2022/03/02 04:08:49;;;;;;;1.98;1.30;;;22.30;51.90;;;;;;5029256;28;20196;-49
2022/03/02 04:11:19;;;;;;;1.63;1.20;;;22.20;51.80;;;;;;5029356;28;20258;-47
2022/03/02 04:13:50;;;;;;;2.13;1.23;;;22.30;51.90;;;;;;5028261;28;20350;-50
2022/03/02 04:16:20;;;;;;;2.65;1.17;;;22.30;51.80;;;;;;5029316;28;20193;-50
2022/03/02 04:18:51;;;;;;;2.03;1.10;;;22.30;51.70;;;;;;5029409;28;20600;-48
2022/03/02 04:21:22;;;;;;;2.78;1.30;;;22.30;51.70;;;;;;5028008;28;20196;-47
2022/03/02 04:23:54;;;;;;;3.70;1.20;;;22.30;51.60;;;;;;5028059;28;20294;-48
2022/03/02 04:26:25;;;;;;;3.13;1.30;;;22.30;51.60;;;;;;5028850;28;20204;-48
2022/03/02 04:28:55;;;;;;;2.75;1.20;;;22.30;51.60;;;;;;5029000;28;20245;-47
2022/03/02 04:31:26;;;;;;;3.17;1.38;;;22.30;52.20;;;;;;5028779;28;20242;-49
2022/03/02 04:33:57;;;;;;;2.83;1.67;;;22.40;51.60;;;;;;5028726;28;20287;-51
2022/03/02 04:36:28;;;;;;;2.65;1.23;;;22.40;51.60;;;;;;5028856;28;20567;-48
2022/03/02 04:39:00;;;;;;;2.38;1.23;;;22.40;52.20;;;;;;5028570;28;20192;-49
2022/03/02 04:41:31;;;;;;;1.95;1.35;;;22.40;51.50;;;;;;5027144;28;20208;-49
2022/03/02 04:44:01;;;;;;;3.00;1.48;;;22.40;51.60;;;;;;5028710;28;20630;-49
2022/03/02 04:46:32;;;;;;;2.33;1.13;;;22.40;51.60;;;;;;5029423;28;20196;-50
2022/03/02 04:49:10;;;;;;;2.53;1.17;;;22.40;51.50;;;;;;5027071;28;20257;-49
2022/03/02 04:51:41;;;;;;;2.83;1.40;;;22.40;51.60;;;;;;5027431;28;20216;-51
2022/03/02 04:55:05;;;;;;;1.65;1.20;;;22.40;51.60;;;;;;5025592;28;20258;-49
2022/03/02 04:57:06;;;;;;;2.35;1.10;;;22.40;51.50;;;;;;5028006;28;20196;-47
2022/03/02 04:59:37;;;;;;;2.72;1.35;;;22.50;51.50;;;;;;5027630;28;20188;-47
2022/03/02 05:02:08;;;;;;;3.00;1.35;;;22.40;51.40;;;;;;5028556;28;20266;-47
2022/03/02 05:04:38;;;;;;;2.42;1.23;;;22.50;51.40;;;;;;5028327;28;20696;-48
2022/03/02 05:07:09;;;;;;;2.30;1.23;;;22.50;51.40;;;;;;5028342;28;20219;-47
2022/03/02 05:09:41;;;;;;;3.20;1.42;;;22.50;51.30;;;;;;5028044;28;20196;-48
2022/03/02 05:12:12;;;;;;;4.13;1.48;;;22.50;51.30;;;;;;5027995;28;20223;-49
2022/03/02 05:14:43;;;;;;;3.42;1.63;;;22.50;51.20;;;;;;5028469;28;20188;-48
2022/03/02 05:17:13;;;;;;;3.92;1.45;;;22.50;51.20;;;;;;5028065;28;20189;-51
2022/03/02 05:19:44;;;;;;;2.45;1.38;;;22.50;51.20;;;;;;5027734;28;20219;-50
2022/03/02 05:22:15;;;;;;;2.80;1.30;;;22.50;51.20;;;;;;5026954;28;20216;-48
2022/03/02 05:24:53;;;;;;;2.67;1.33;;;22.50;51.10;;;;;;5027671;28;20224;-47
2022/03/02 05:27:24;;;;;;;2.30;1.50;;;22.50;51.20;;;;;;5027913;28;20616;-49
2022/03/02 05:29:54;;;;;;;4.60;1.88;;;22.50;51.20;;;;;;5028015;28;20192;-50
2022/03/02 05:32:25;;;;;;;1.88;1.05;;;22.60;51.20;;;;;;5026991;28;20745;-47
2022/03/02 05:34:56;;;;;;;3.03;1.55;;;22.60;51.20;;;;;;5028204;28;20242;-49
2022/03/02 05:37:26;;;;;;;2.55;1.30;;;22.60;51.20;;;;;;5027592;28;20281;-52
2022/03/02 05:39:59;;;;;;;4.65;1.85;;;22.60;51.20;;;;;;5023713;28;20204;-47
2022/03/02 05:42:29;;;;;;;3.08;1.50;;;22.60;51.20;;;;;;5023972;28;20215;-47
2022/03/02 05:45:00;;;;;;;4.32;1.80;;;22.60;51.10;;;;;;5027150;28;20231;-50
2022/03/02 05:47:30;;;;;;;4.05;1.42;;;22.70;51.10;;;;;;5027806;28;20606;-49
2022/03/02 05:50:01;;;;;;;5.10;2.00;;;22.70;51.10;;;;;;5026873;28;20251;-48
2022/03/02 05:52:32;;;;;;;3.35;1.80;;;22.70;51.00;;;;;;5026642;28;20569;-48
2022/03/02 05:55:04;;;;;;;4.78;1.98;;;22.80;51.00;;;;;;5027404;28;20192;-48
2022/03/02 05:57:35;;;;;;;6.68;2.00;;;22.80;50.90;;;;;;5027219;28;20215;-49
2022/03/02 06:00:06;;;;;;;4.72;2.05;;;22.80;51.00;;;;;;5026072;28;20228;-49
2022/03/02 06:02:37;;;;;;;10.30;3.20;;;22.80;51.00;;;;;;5027266;28;20212;-49
2022/03/02 06:05:10;;;;;;;12.50;3.38;;;22.80;51.10;;;;;;5026544;28;20228;-51
2022/03/02 06:07:41;;;;;;;10.05;3.38;;;22.80;51.10;;;;;;5027708;28;20366;-50
2022/03/02 06:10:16;;;;;;;12.60;3.92;;;22.80;51.20;;;;;;5027374;28;20193;-50
2022/03/02 06:12:46;;;;;;;11.27;3.50;;;22.90;51.10;;;;;;5027317;28;20216;-51
2022/03/02 06:15:18;;;;;;;15.77;4.18;;;22.90;51.10;;;;;;5028294;28;20250;-50
2022/03/02 06:17:49;;;;;;;11.10;3.67;;;22.90;51.00;;;;;;5027404;28;20710;-48
2022/03/02 06:20:20;;;;;;;15.00;4.43;;;22.90;51.00;;;;;;5025735;28;20657;-49
2022/03/02 06:22:51;;;;;;;12.05;3.85;;;22.90;51.00;;;;;;5026358;28;20622;-48
2022/03/02 06:25:24;;;;;;;11.93;3.65;;;22.90;51.00;;;;;;5040173;22;20231;-55
2022/03/02 06:27:54;;;;;;;12.35;3.75;;;22.90;51.00;;;;;;5027340;28;20204;-53
2022/03/02 06:30:25;;;;;;;9.43;3.70;;;22.80;50.90;;;;;;5030230;28;20794;-55
2022/03/02 06:32:56;;;;;;;17.25;4.20;;;22.80;50.80;;;;;;5030202;28;20220;-52
2022/03/02 06:35:26;;;;;;;11.18;2.92;;;22.90;50.90;;;;;;5031581;28;20188;-52
2022/03/02 06:37:57;;;;;;;11.73;3.47;;;22.80;50.80;;;;;;5031353;28;20247;-54
2022/03/02 06:40:29;;;;;;;10.57;2.78;;;22.80;50.80;;;;;;5031018;28;20275;-53
2022/03/02 06:43:06;;;;;;;9.30;3.28;;;22.80;50.70;;;;;;5031379;28;20270;-53
2022/03/02 06:45:52;;;;;;;7.43;3.22;;;22.80;50.70;;;;;;5030770;28;20227;-55
2022/03/02 06:48:25;;;;;;;9.10;3.13;;;22.80;50.60;;;;;;5030762;28;20200;-55
2022/03/02 06:50:57;;;;;;;10.07;3.47;;;22.80;50.60;;;;;;5030913;28;20291;-55
2022/03/02 06:53:35;;;;;;;7.75;3.10;;;22.80;50.60;;;;;;5029916;28;20794;-53
2022/03/02 06:56:09;;;;;;;6.28;3.08;;;22.70;50.50;;;;;;5030385;28;20275;-54
2022/03/02 06:58:43;;;;;;;8.23;3.10;;;22.70;50.50;;;;;;5030758;28;20200;-54
2022/03/02 07:01:18;;;;;;;8.48;2.90;;;22.70;50.60;;;;;;5030213;28;20265;-55
2022/03/02 07:03:50;;;;;;;10.85;3.75;;;22.70;50.60;;;;;;5031046;28;20251;-54
2022/03/02 07:06:21;;;;;;;10.00;3.22;;;22.60;50.60;;;;;;5031082;28;20226;-56
2022/03/02 07:08:52;;;;;;;7.35;2.67;;;22.60;50.60;;;;;;5029597;28;20218;-55
2022/03/02 07:11:25;;;;;;;8.60;2.72;;;22.60;50.60;;;;;;5029254;28;20212;-56
2022/03/02 07:13:57;;;;;;;9.52;3.50;;;22.60;50.60;;;;;;5023914;28;20193;-57
2022/03/02 07:16:27;;;;;;;8.68;2.88;;;22.50;50.60;;;;;;5012462;28;20208;-53
2022/03/02 07:18:58;;;;;;;9.55;2.90;;;22.50;50.70;;;;;;5012245;28;20197;-54
2022/03/02 07:21:30;;;;;;;8.25;3.47;;;22.50;50.70;;;;;;5011142;28;20207;-54
2022/03/02 07:24:07;;;;;;;7.68;3.10;;;22.50;50.70;;;;;;5011506;28;20193;-56
2022/03/02 07:29:14;;;;;;;8.02;2.85;;;22.40;50.70;;;;;;5027225;28;20580;-56
2022/03/02 07:31:46;;;;;;;7.25;2.72;;;22.50;50.80;;;;;;5037282;28;20257;-54
2022/03/02 07:34:17;;;;;;;4.38;2.50;;;22.40;50.80;;;;;;5051645;28;20225;-56
2022/03/02 07:36:49;;;;;;;7.18;2.55;;;22.40;50.80;;;;;;5051611;28;20227;-56
2022/03/02 07:39:19;;;;;;;8.52;3.33;;;22.40;50.70;;;;;;5050995;28;20253;-55
2022/03/02 07:41:50;;;;;;;6.78;2.55;;;22.40;50.70;;;;;;5047905;28;20257;-56
2022/03/02 07:44:22;;;;;;;5.45;2.50;;;22.40;50.70;;;;;;5051024;28;20204;-57
2022/03/02 07:46:53;;;;;;;5.05;2.42;;;22.30;50.60;;;;;;5051227;28;20203;-57
2022/03/02 07:49:24;;;;;;;6.40;2.45;;;22.30;50.70;;;;;;5051154;28;20257;-56
2022/03/02 07:51:56;;;;;;;6.13;2.33;;;22.30;50.70;;;;;;5050596;28;20636;-57
2022/03/02 07:54:29;;;;;;;6.20;2.38;;;22.30;50.70;;;;;;5051035;28;20245;-58
2022/03/02 07:57:01;;;;;;;7.85;2.40;;;22.30;50.80;;;;;;5050766;28;20196;-51
2022/03/02 07:59:38;;;;;;;6.20;2.40;;;22.20;50.80;;;;;;5049915;28;20221;-57
2022/03/02 08:02:09;;;;;;;5.30;2.53;;;22.20;50.80;;;;;;5050451;28;20215;-55
2022/03/02 08:04:41;;;;;;;4.88;2.25;;;22.20;50.90;;;;;;5051139;28;20269;-54
2022/03/02 08:07:12;;;;;;;5.50;2.67;;;22.20;51.00;;;;;;5050962;28;20200;-53
2022/03/02 08:09:43;;;;;;;5.18;2.60;;;22.10;51.00;;;;;;5050371;28;20195;-49
2022/03/02 08:12:14;;;;;;;5.35;2.20;;;22.10;51.00;;;;;;5050360;28;20227;-55
2022/03/02 08:14:49;;;;;;;4.90;2.33;;;22.10;51.00;;;;;;5050377;28;20192;-56
2022/03/02 08:17:21;;;;;;;5.70;2.47;;;22.10;51.10;;;;;;5045304;28;20191;-55
2022/03/02 08:19:52;;;;;;;5.25;2.42;;;22.10;51.70;;;;;;5049054;28;20219;-55
2022/03/02 08:22:25;;;;;;;7.43;2.35;;;22.10;51.10;;;;;;5048480;28;20620;-55
2022/03/02 08:27:49;;;;;;;5.03;2.20;;;22.00;51.00;;;;;;5780452;22;20319;-49
2022/03/02 08:30:26;;;;;;;5.03;2.53;;;22.00;51.10;;;;;;5025834;28;20586;-51
2022/03/02 08:33:04;;;;;;;4.63;2.47;;;22.00;51.00;;;;;;5024379;28;20680;-53
2022/03/02 08:35:42;;;;;;;4.88;2.00;;;22.00;51.10;;;;;;5023928;28;20589;-50
2022/03/02 08:38:17;;;;;;;5.25;1.85;;;22.00;51.10;;;;;;5024463;28;20203;-50
2022/03/02 08:40:52;;;;;;;5.22;2.17;;;21.90;51.00;;;;;;5025817;28;20620;-48
2022/03/02 08:43:28;;;;;;;4.38;2.00;;;21.90;51.10;;;;;;5024363;28;20227;-48
2022/03/02 08:46:05;;;;;;;4.07;2.00;;;21.90;51.10;;;;;;5024143;28;20306;-47
2022/03/02 08:48:39;;;;;;;5.07;2.20;;;21.90;51.10;;;;;;5026099;28;20610;-51
2022/03/02 08:51:17;;;;;;;4.97;2.40;;;21.80;51.70;;;;;;5024921;28;20687;-47
2022/03/02 08:53:54;;;;;;;5.65;2.35;;;21.80;51.10;;;;;;5022256;28;20506;-50
2022/03/02 08:56:30;;;;;;;4.05;2.17;;;21.80;51.10;;;;;;5023045;28;20575;-49
2022/03/02 08:59:10;;;;;;;5.07;2.13;;;21.80;51.10;;;;;;5024419;28;20593;-49
2022/03/02 09:01:52;;;;;;;5.75;2.10;;;21.80;51.20;;;;;;5023755;28;20895;-53
2022/03/02 09:04:32;;;;;;;4.68;1.92;;;21.80;51.20;;;;;;5021542;28;20214;-53
2022/03/02 09:07:10;;;;;;;4.43;1.95;;;21.70;51.80;;;;;;5023023;28;20818;-53
2022/03/02 09:09:47;;;;;;;6.00;2.47;;;21.70;51.20;;;;;;5023344;28;20518;-50
2022/03/02 09:12:21;;;;;;;5.22;2.30;;;21.70;51.20;;;;;;5023456;28;20543;-50
2022/03/02 09:14:55;;;;;;;4.70;2.10;;;21.70;51.20;;;;;;5023604;28;20195;-52
2022/03/02 09:17:34;;;;;;;4.18;2.08;;;21.70;51.20;;;;;;5022592;28;20527;-51
2022/03/02 09:20:10;;;;;;;4.18;2.20;;;21.70;51.20;;;;;;5019890;28;20640;-50
2022/03/02 09:22:47;;;;;;;3.10;2.00;;;21.70;51.20;;;;;;5022545;28;20567;-51
2022/03/02 09:25:19;;;;;;;4.43;2.25;;;21.60;51.20;;;;;;5023637;28;20562;-48
2022/03/02 09:27:51;;;;;;;4.20;2.17;;;21.60;51.20;;;;;;5024555;28;20673;-49
2022/03/02 09:30:22;;;;;;;4.35;1.83;;;21.60;51.80;;;;;;5025995;28;20192;-49
2022/03/02 09:32:56;;;;;;;4.68;2.08;;;21.60;51.20;;;;;;5023775;28;20278;-52
2022/03/02 09:35:27;;;;;;;4.38;2.00;;;21.60;51.30;;;;;;5025895;28;20200;-50
2022/03/02 09:37:58;;;;;;;3.78;1.92;;;21.60;51.30;;;;;;5023679;28;20192;-51
2022/03/02 09:40:29;;;;;;;7.65;3.20;;;21.50;51.20;;;;;;5025592;28;20227;-48
2022/03/02 09:43:02;;;;;;;9.40;3.40;;;21.50;51.80;;;;;;5025694;28;20215;-49
2022/03/02 09:45:35;;;;;;;8.75;3.38;;;21.50;52.40;;;;;;5025649;28;20305;-49
2022/03/02 09:48:12;;;;;;;8.13;3.40;;;21.50;52.30;;;;;;5025390;28;20604;-51
2022/03/02 09:50:42;;;;;;;9.93;3.50;;;21.50;52.30;;;;;;5025483;28;20226;-50
2022/03/02 09:53:16;;;;;;;7.40;2.92;;;21.50;52.30;;;;;;5022804;28;20220;-49
2022/03/02 09:55:48;;;;;;;8.68;3.38;;;21.50;52.30;;;;;;5023543;28;20273;-49
2022/03/02 09:58:24;;;;;;;9.85;3.28;;;21.50;52.20;;;;;;5025584;28;20285;-52
2022/03/02 10:00:58;;;;;;;6.97;2.72;;;21.50;52.20;;;;;;5024004;28;20191;-50
2022/03/02 10:03:37;;;;;;;8.63;3.35;;;21.50;52.10;;;;;;5015229;28;20212;-49
2022/03/02 10:06:09;;;;;;;5.90;2.90;;;21.40;52.10;;;;;;5011738;28;20216;-54
2022/03/02 10:08:45;;;;;;;6.65;2.55;;;21.40;52.10;;;;;;5008266;28;20272;-53
2022/03/02 10:11:21;;;;;;;7.57;3.10;;;21.40;52.10;;;;;;5009954;28;20200;-53
2022/03/02 10:13:52;;;;;;;7.28;3.35;;;21.30;52.00;;;;;;5009993;28;20297;-54
2022/03/02 10:16:25;;;;;;;7.05;3.00;;;21.30;51.90;;;;;;5007646;28;20188;-53
2022/03/02 10:19:00;;;;;;;10.57;3.28;;;21.30;51.90;;;;;;5009357;28;20639;-54
2022/03/02 10:21:32;;;;;;;6.80;3.00;;;21.30;51.90;;;;;;5009368;28;20703;-53
2022/03/02 10:24:04;;;;;;;9.68;2.92;;;21.30;51.90;;;;;;5009848;28;20189;-51
2022/03/02 10:26:41;;;;;;;7.18;3.22;;;21.30;51.90;;;;;;5045671;23;20223;-51
2022/03/02 10:29:27;;;;;;;7.78;2.97;;;21.20;51.90;;;;;;5049581;28;20195;-50
2022/03/02 10:32:08;;;;;;;6.47;2.63;;;21.20;51.90;;;;;;5049248;28;20216;-47
2022/03/02 10:34:45;;;;;;;7.78;3.17;;;21.20;51.90;;;;;;5059467;28;20195;-54
2022/03/02 10:37:32;;;;;;;8.35;3.22;;;21.20;51.90;;;;;;5061795;28;20251;-51
2022/03/02 10:40:09;;;;;;;8.30;2.95;;;21.20;51.90;;;;;;5060746;28;20237;-48
2022/03/02 10:42:42;;;;;;;4.57;2.42;;;21.10;51.80;;;;;;5059790;28;20249;-50
2022/03/02 10:45:15;;;;;;;5.55;2.50;;;21.10;51.80;;;;;;5052636;28;20738;-47
2022/03/02 10:48:01;;;;;;;6.15;2.65;;;21.10;51.90;;;;;;5052001;28;20683;-47
2022/03/02 10:50:36;;;;;;;4.95;2.30;;;21.10;51.90;;;;;;5052394;28;20600;-48
2022/03/02 10:53:12;;;;;;;8.00;3.05;;;21.00;51.80;;;;;;5052365;28;20225;-48
2022/03/02 10:55:46;;;;;;;6.65;3.00;;;21.00;51.80;;;;;;5052728;28;20245;-50
2022/03/02 10:58:18;;;;;;;8.07;2.67;;;21.00;51.90;;;;;;5052461;28;20196;-48
2022/03/02 11:00:50;;;;;;;5.07;2.20;;;21.00;51.90;;;;;;5052230;28;20199;-48
2022/03/02 11:03:22;;;;;;;5.75;2.88;;;20.90;51.80;;;;;;5051523;28;20223;-49
2022/03/02 11:05:54;;;;;;;5.07;2.28;;;20.90;51.80;;;;;;5051763;28;20219;-49
2022/03/02 11:08:27;;;;;;;7.28;2.65;;;20.90;51.90;;;;;;5051893;28;20911;-48
2022/03/02 11:10:59;;;;;;;6.82;2.40;;;20.90;51.90;;;;;;5051820;28;20203;-49
2022/03/02 11:13:31;;;;;;;3.80;2.13;;;20.90;51.90;;;;;;5051586;28;20222;-48
2022/03/02 11:16:02;;;;;;;7.18;2.63;;;20.80;51.80;;;;;;5051129;28;20773;-49
2022/03/02 11:18:37;;;;;;;7.13;2.53;;;20.80;51.80;;;;;;5051192;28;20875;-50
2022/03/02 11:21:11;;;;;;;5.50;2.42;;;20.80;51.90;;;;;;5051773;28;20651;-48
2022/03/02 11:23:45;;;;;;;6.22;2.15;;;20.80;51.90;;;;;;5051878;28;20196;-49
2022/03/02 11:28:57;;;;;;;4.63;2.25;;;20.70;51.80;;;;;;5260675;22;20460;-53
2022/03/02 11:31:34;;;;;;;7.60;2.40;;;20.70;51.90;;;;;;5071604;28;20263;-48
2022/03/02 11:34:21;;;;;;;5.93;2.60;;;20.70;51.80;;;;;;5069001;28;20591;-52
2022/03/02 11:36:56;;;;;;;5.00;2.10;;;20.60;51.80;;;;;;5068004;28;20219;-56
2022/03/02 11:39:28;;;;;;;5.32;2.30;;;20.60;51.80;;;;;;5070808;28;20535;-54
2022/03/02 11:42:03;;;;;;;4.07;2.25;;;20.60;51.80;;;;;;5067535;28;20206;-56
2022/03/02 11:44:34;;;;;;;5.82;2.40;;;20.60;51.80;;;;;;5071637;28;20209;-55
2022/03/02 11:47:07;;;;;;;4.70;2.08;;;20.60;51.90;;;;;;5071269;28;20230;-52
2022/03/02 11:49:43;;;;;;;7.63;2.70;;;20.60;51.90;;;;;;5070945;28;20191;-57
2022/03/02 11:52:17;;;;;;;5.75;2.17;;;20.50;51.90;;;;;;5067022;28;20215;-56
2022/03/02 11:54:49;;;;;;;6.25;2.35;;;20.50;51.90;;;;;;5070947;28;20363;-56
2022/03/02 11:57:20;;;;;;;3.72;1.70;;;20.50;51.90;;;;;;5070808;28;20223;-57
2022/03/02 12:00:06;;;;;;;5.03;2.05;;;20.50;51.90;;;;;;5070899;28;20203;-57
2022/03/02 12:02:44;;;;;;;4.25;2.20;;;20.50;51.90;;;;;;5071029;28;20215;-56
2022/03/02 12:05:15;;;;;;;5.45;2.03;;;20.40;51.80;;;;;;5071175;28;20882;-57
2022/03/02 12:07:48;;;;;;;4.95;2.25;;;20.40;51.80;;;;;;5062016;28;20234;-58
2022/03/02 12:10:22;;;;;;;4.30;1.98;;;20.40;51.90;;;;;;5050404;28;20191;-54
2022/03/02 12:12:53;;;;;;;4.00;2.10;;;20.40;51.90;;;;;;5050311;28;20306;-55
2022/03/02 12:15:25;;;;;;;5.53;2.50;;;20.30;51.80;;;;;;5050703;28;20261;-54
2022/03/02 12:18:09;;;;;;;4.05;2.03;;;20.30;51.90;;;;;;5050528;28;20203;-55
2022/03/02 12:20:47;;;;;;;3.25;1.80;;;20.30;51.90;;;;;;5050693;28;20212;-55
2022/03/02 12:23:24;;;;;;;6.30;2.17;;;20.30;51.90;;;;;;5050815;28;20215;-55
2022/03/02 12:25:55;;;;;;;4.10;1.85;;;20.30;51.90;;;;;;5050273;28;20203;-56
2022/03/02 12:28:27;;;;;;;4.25;2.05;;;20.20;51.80;;;;;;5050413;28;20211;-56
2022/03/02 12:30:59;;;;;;;4.03;1.65;;;20.20;51.80;;;;;;5050391;28;20195;-56
2022/03/02 12:33:29;;;;;;;4.95;2.05;;;20.20;51.90;;;;;;5050571;28;20276;-57
2022/03/02 12:36:00;;;;;;;2.60;1.63;;;20.20;51.90;;;;;;5050527;28;20199;-56
2022/03/02 12:38:32;;;;;;;5.05;1.85;;;20.10;51.80;;;;;;5063250;28;20260;-57
2022/03/02 12:41:03;;;;;;;2.95;1.80;;;20.10;51.80;;;;;;5070010;28;20252;-55
2022/03/02 12:43:34;;;;;;;4.53;1.88;;;20.10;51.90;;;;;;5069785;28;20222;-57
2022/03/02 12:46:05;;;;;;;2.83;1.50;;;20.10;51.90;;;;;;5070058;28;20653;-53
2022/03/02 12:48:37;;;;;;;3.95;1.92;;;20.00;51.90;;;;;;5070168;28;20229;-56
2022/03/02 12:51:08;;;;;;;3.92;1.90;;;20.00;51.90;;;;;;5069966;28;20210;-55
2022/03/02 12:53:41;;;;;;;4.60;1.80;;;20.00;51.90;;;;;;5069223;28;20280;-56
2022/03/02 12:56:12;;;;;;;3.58;1.70;;;20.00;51.90;;;;;;5069880;28;20198;-55
2022/03/02 12:58:44;;;;;;;3.13;1.65;;;20.00;51.90;;;;;;5069813;28;20245;-56
2022/03/02 13:01:15;;;;;;;4.03;1.80;;;19.90;51.80;;;;;;5069366;28;20208;-55
2022/03/02 13:03:49;;;;;;;3.38;1.80;;;19.90;51.90;;;;;;5070026;28;20199;-56
2022/03/02 13:06:27;;;;;;;2.17;1.40;;;19.90;51.90;;;;;;5069196;28;20198;-56
2022/03/02 13:09:06;;;;;;;3.72;1.83;;;19.90;51.90;;;;;;5053736;28;20225;-56
2022/03/02 13:11:37;;;;;;;7.35;2.00;;;19.90;51.90;;;;;;5049533;28;20698;-56
2022/03/02 13:14:12;;;;;;;3.92;1.58;;;19.80;51.90;;;;;;5049906;28;20195;-56
2022/03/02 13:16:43;;;;;;;4.75;1.90;;;19.80;51.80;;;;;;5049763;28;20207;-57
2022/03/02 13:19:20;;;;;;;3.13;1.40;;;19.80;51.90;;;;;;5049949;28;20249;-57
2022/03/02 13:22:01;;;;;;;4.00;1.58;;;19.70;51.80;;;;;;5049808;28;20293;-58
2022/03/02 13:24:47;;;;;;;3.40;1.73;;;19.70;51.80;;;;;;5049820;28;20192;-56